sensor_id;sensor_type;location;lat;lon;timestamp;P1;durP1;ratioP1;P2;durP2;ratioP2
47381;SDS011;33128;51.580;5.170;2023-04-01T00:01:32;590.13;;;547.70;;
47381;SDS011;33128;51.580;5.170;2023-04-01T00:03:58;208.43;;;194.38;;
47381;SDS011;33128;51.580;5.170;2023-04-01T00:06:26;337.77;;;310.98;;
47381;SDS011;33128;51.580;5.170;2023-04-01T00:08:52;299.40;;;278.10;;
47381;SDS011;33128;51.580;5.170;2023-04-01T00:11:18;525.05;;;488.70;;
47381;SDS011;33128;51.580;5.170;2023-04-01T00:13:44;551.55;;;512.53;;
47381;SDS011;33128;51.580;5.170;2023-04-01T00:16:10;209.27;;;196.02;;
47381;SDS011;33128;51.580;5.170;2023-04-01T00:18:36;255.50;;;236.30;;
47381;SDS011;33128;51.580;5.170;2023-04-01T00:21:01;572.72;;;523.08;;
47381;SDS011;33128;51.580;5.170;2023-04-01T00:23:27;293.33;;;273.58;;
47381;SDS011;33128;51.580;5.170;2023-04-01T00:25:53;302.90;;;280.83;;
47381;SDS011;33128;51.580;5.170;2023-04-01T00:28:19;154.13;;;144.45;;
47381;SDS011;33128;51.580;5.170;2023-04-01T00:30:45;587.35;;;545.97;;
47381;SDS011;33128;51.580;5.170;2023-04-01T00:33:12;457.77;;;423.48;;
47381;SDS011;33128;51.580;5.170;2023-04-01T00:35:38;372.73;;;347.45;;
47381;SDS011;33128;51.580;5.170;2023-04-01T00:38:04;332.10;;;309.85;;
47381;SDS011;33128;51.580;5.170;2023-04-01T00:40:32;527.72;;;484.38;;
47381;SDS011;33128;51.580;5.170;2023-04-01T00:43:00;373.23;;;347.45;;
47381;SDS011;33128;51.580;5.170;2023-04-01T00:45:28;300.65;;;280.38;;
47381;SDS011;33128;51.580;5.170;2023-04-01T00:48:14;539.50;;;495.77;;
47381;SDS011;33128;51.580;5.170;2023-04-01T00:50:41;433.15;;;401.77;;
47381;SDS011;33128;51.580;5.170;2023-04-01T00:53:09;269.98;;;251.82;;
47381;SDS011;33128;51.580;5.170;2023-04-01T00:55:37;316.83;;;295.60;;
47381;SDS011;33128;51.580;5.170;2023-04-01T00:58:07;304.17;;;283.70;;
47381;SDS011;33128;51.580;5.170;2023-04-01T01:00:39;441.42;;;408.88;;
47381;SDS011;33128;51.580;5.170;2023-04-01T01:03:05;384.33;;;355.15;;
47381;SDS011;33128;51.580;5.170;2023-04-01T01:05:55;259.83;;;242.55;;
47381;SDS011;33128;51.580;5.170;2023-04-01T01:11:48;279.00;;;260.50;;
47381;SDS011;33128;51.580;5.170;2023-04-01T01:17:19;388.38;;;362.58;;
47381;SDS011;33128;51.580;5.170;2023-04-01T01:20:13;274.92;;;256.55;;
47381;SDS011;33128;51.580;5.170;2023-04-01T01:25:46;309.40;;;288.73;;
47381;SDS011;33128;51.580;5.170;2023-04-01T01:28:36;373.00;;;348.08;;
47381;SDS011;33128;51.580;5.170;2023-04-01T01:31:34;291.70;;;272.10;;
47381;SDS011;33128;51.580;5.170;2023-04-01T01:34:15;370.98;;;343.17;;
47381;SDS011;33128;51.580;5.170;2023-04-01T01:36:53;152.77;;;142.98;;
47381;SDS011;33128;51.580;5.170;2023-04-01T01:39:25;218.52;;;204.48;;
47381;SDS011;33128;51.580;5.170;2023-04-01T01:41:57;238.35;;;221.52;;
47381;SDS011;33128;51.580;5.170;2023-04-01T01:44:26;240.25;;;224.57;;
47381;SDS011;33128;51.580;5.170;2023-04-01T01:46:59;270.05;;;249.85;;
47381;SDS011;33128;51.580;5.170;2023-04-01T01:49:26;530.65;;;491.35;;
47381;SDS011;33128;51.580;5.170;2023-04-01T01:51:55;109.25;;;101.55;;
47381;SDS011;33128;51.580;5.170;2023-04-01T01:54:21;258.95;;;241.82;;
47381;SDS011;33128;51.580;5.170;2023-04-01T01:56:48;288.85;;;268.80;;
47381;SDS011;33128;51.580;5.170;2023-04-01T01:59:20;85.85;;;80.60;;
47381;SDS011;33128;51.580;5.170;2023-04-01T02:01:50;596.60;;;550.80;;
47381;SDS011;33128;51.580;5.170;2023-04-01T02:04:18;252.02;;;235.13;;
47381;SDS011;33128;51.580;5.170;2023-04-01T02:09:57;397.52;;;368.27;;
47381;SDS011;33128;51.580;5.170;2023-04-01T02:12:23;185.35;;;173.63;;
47381;SDS011;33128;51.580;5.170;2023-04-01T02:14:51;322.67;;;300.35;;
47381;SDS011;33128;51.580;5.170;2023-04-01T02:17:26;130.63;;;122.30;;
47381;SDS011;33128;51.580;5.170;2023-04-01T02:19:59;203.35;;;189.68;;
47381;SDS011;33128;51.580;5.170;2023-04-01T02:22:29;272.48;;;255.32;;
47381;SDS011;33128;51.580;5.170;2023-04-01T02:25:00;183.52;;;170.73;;
47381;SDS011;33128;51.580;5.170;2023-04-01T02:27:31;381.55;;;353.77;;
47381;SDS011;33128;51.580;5.170;2023-04-01T02:29:56;246.50;;;230.00;;
47381;SDS011;33128;51.580;5.170;2023-04-01T02:32:23;128.52;;;119.47;;
47381;SDS011;33128;51.580;5.170;2023-04-01T02:34:49;304.05;;;283.40;;
47381;SDS011;33128;51.580;5.170;2023-04-01T02:37:15;364.00;;;338.77;;
47381;SDS011;33128;51.580;5.170;2023-04-01T02:39:42;245.75;;;229.15;;
47381;SDS011;33128;51.580;5.170;2023-04-01T02:42:08;163.80;;;152.65;;
47381;SDS011;33128;51.580;5.170;2023-04-01T02:44:34;303.25;;;283.02;;
47381;SDS011;33128;51.580;5.170;2023-04-01T02:46:59;295.00;;;272.85;;
47381;SDS011;33128;51.580;5.170;2023-04-01T02:49:25;210.82;;;196.98;;
47381;SDS011;33128;51.580;5.170;2023-04-01T02:51:51;270.05;;;251.13;;
47381;SDS011;33128;51.580;5.170;2023-04-01T02:54:17;235.30;;;219.68;;
47381;SDS011;33128;51.580;5.170;2023-04-01T02:56:43;239.18;;;223.23;;
47381;SDS011;33128;51.580;5.170;2023-04-01T02:59:08;271.13;;;253.00;;
47381;SDS011;33128;51.580;5.170;2023-04-01T03:01:34;540.63;;;500.20;;
47381;SDS011;33128;51.580;5.170;2023-04-01T03:04:00;61.08;;;56.63;;
47381;SDS011;33128;51.580;5.170;2023-04-01T03:06:25;161.18;;;151.73;;
47381;SDS011;33128;51.580;5.170;2023-04-01T03:08:51;160.50;;;149.10;;
47381;SDS011;33128;51.580;5.170;2023-04-01T03:11:19;97.10;;;90.72;;
47381;SDS011;33128;51.580;5.170;2023-04-01T03:13:46;237.82;;;220.80;;
47381;SDS011;33128;51.580;5.170;2023-04-01T03:16:11;202.23;;;190.13;;
47381;SDS011;33128;51.580;5.170;2023-04-01T03:18:37;204.27;;;192.02;;
47381;SDS011;33128;51.580;5.170;2023-04-01T03:21:16;200.73;;;187.85;;
47381;SDS011;33128;51.580;5.170;2023-04-01T03:23:44;523.00;;;484.70;;
47381;SDS011;33128;51.580;5.170;2023-04-01T03:26:09;294.15;;;273.02;;
47381;SDS011;33128;51.580;5.170;2023-04-01T03:28:35;249.88;;;233.73;;
47381;SDS011;33128;51.580;5.170;2023-04-01T03:31:01;151.02;;;141.85;;
47381;SDS011;33128;51.580;5.170;2023-04-01T03:33:26;214.35;;;201.52;;
47381;SDS011;33128;51.580;5.170;2023-04-01T03:35:52;230.35;;;214.55;;
47381;SDS011;33128;51.580;5.170;2023-04-01T03:38:20;95.65;;;89.63;;
47381;SDS011;33128;51.580;5.170;2023-04-01T03:40:46;114.32;;;106.45;;
47381;SDS011;33128;51.580;5.170;2023-04-01T03:43:11;147.75;;;138.27;;
47381;SDS011;33128;51.580;5.170;2023-04-01T03:45:44;213.98;;;200.18;;
47381;SDS011;33128;51.580;5.170;2023-04-01T03:48:11;210.05;;;196.50;;
47381;SDS011;33128;51.580;5.170;2023-04-01T03:50:36;195.25;;;183.25;;
47381;SDS011;33128;51.580;5.170;2023-04-01T03:53:02;372.13;;;345.17;;
47381;SDS011;33128;51.580;5.170;2023-04-01T03:55:27;162.02;;;151.80;;
47381;SDS011;33128;51.580;5.170;2023-04-01T03:57:53;119.90;;;111.22;;
47381;SDS011;33128;51.580;5.170;2023-04-01T04:00:18;239.70;;;224.45;;
47381;SDS011;33128;51.580;5.170;2023-04-01T04:02:44;417.30;;;388.95;;
47381;SDS011;33128;51.580;5.170;2023-04-01T04:05:10;229.82;;;215.25;;
47381;SDS011;33128;51.580;5.170;2023-04-01T04:07:36;574.53;;;534.92;;
47381;SDS011;33128;51.580;5.170;2023-04-01T04:10:01;273.48;;;255.45;;
47381;SDS011;33128;51.580;5.170;2023-04-01T04:12:27;343.40;;;319.95;;
47381;SDS011;33128;51.580;5.170;2023-04-01T04:14:53;502.33;;;466.83;;
47381;SDS011;33128;51.580;5.170;2023-04-01T04:17:18;235.88;;;220.45;;
47381;SDS011;33128;51.580;5.170;2023-04-01T04:19:44;429.33;;;399.52;;
47381;SDS011;33128;51.580;5.170;2023-04-01T04:22:12;139.07;;;130.27;;
47381;SDS011;33128;51.580;5.170;2023-04-01T04:24:38;177.10;;;165.95;;
47381;SDS011;33128;51.580;5.170;2023-04-01T04:27:03;506.92;;;470.55;;
47381;SDS011;33128;51.580;5.170;2023-04-01T04:29:29;150.68;;;141.70;;
47381;SDS011;33128;51.580;5.170;2023-04-01T04:31:55;110.95;;;102.25;;
47381;SDS011;33128;51.580;5.170;2023-04-01T04:34:21;316.30;;;295.42;;
47381;SDS011;33128;51.580;5.170;2023-04-01T04:36:50;376.55;;;350.45;;
47381;SDS011;33128;51.580;5.170;2023-04-01T04:39:15;525.22;;;487.13;;
47381;SDS011;33128;51.580;5.170;2023-04-01T04:41:41;122.82;;;115.68;;
47381;SDS011;33128;51.580;5.170;2023-04-01T04:44:07;125.00;;;117.53;;
47381;SDS011;33128;51.580;5.170;2023-04-01T04:46:33;195.63;;;183.88;;
47381;SDS011;33128;51.580;5.170;2023-04-01T04:48:58;85.93;;;79.93;;
47381;SDS011;33128;51.580;5.170;2023-04-01T04:51:24;160.40;;;151.10;;
47381;SDS011;33128;51.580;5.170;2023-04-01T04:53:50;604.42;;;554.65;;
47381;SDS011;33128;51.580;5.170;2023-04-01T04:56:20;590.40;;;541.97;;
47381;SDS011;33128;51.580;5.170;2023-04-01T04:58:46;316.13;;;294.13;;
47381;SDS011;33128;51.580;5.170;2023-04-01T05:01:13;219.52;;;205.07;;
47381;SDS011;33128;51.580;5.170;2023-04-01T05:03:40;406.08;;;378.55;;
47381;SDS011;33128;51.580;5.170;2023-04-01T05:06:07;505.00;;;466.42;;
47381;SDS011;33128;51.580;5.170;2023-04-01T05:08:33;417.90;;;388.48;;
47381;SDS011;33128;51.580;5.170;2023-04-01T05:11:00;185.07;;;173.32;;
47381;SDS011;33128;51.580;5.170;2023-04-01T05:13:26;432.13;;;402.83;;
47381;SDS011;33128;51.580;5.170;2023-04-01T05:15:52;314.75;;;293.08;;
47381;SDS011;33128;51.580;5.170;2023-04-01T05:18:18;370.40;;;345.35;;
47381;SDS011;33128;51.580;5.170;2023-04-01T05:20:51;496.08;;;461.75;;
47381;SDS011;33128;51.580;5.170;2023-04-01T05:23:18;376.95;;;351.65;;
47381;SDS011;33128;51.580;5.170;2023-04-01T05:25:46;587.55;;;539.55;;
47381;SDS011;33128;51.580;5.170;2023-04-01T05:28:12;300.20;;;280.35;;
47381;SDS011;33128;51.580;5.170;2023-04-01T05:30:41;370.85;;;346.95;;
47381;SDS011;33128;51.580;5.170;2023-04-01T05:33:11;394.17;;;367.85;;
47381;SDS011;33128;51.580;5.170;2023-04-01T05:35:38;481.48;;;449.00;;
47381;SDS011;33128;51.580;5.170;2023-04-01T05:38:04;617.88;;;569.35;;
47381;SDS011;33128;51.580;5.170;2023-04-01T05:40:30;265.02;;;248.48;;
47381;SDS011;33128;51.580;5.170;2023-04-01T05:42:56;250.15;;;232.85;;
47381;SDS011;33128;51.580;5.170;2023-04-01T05:45:22;782.67;;;717.60;;
47381;SDS011;33128;51.580;5.170;2023-04-01T05:47:47;628.22;;;571.78;;
47381;SDS011;33128;51.580;5.170;2023-04-01T05:50:13;414.38;;;376.77;;
47381;SDS011;33128;51.580;5.170;2023-04-01T05:52:40;722.13;;;665.10;;
47381;SDS011;33128;51.580;5.170;2023-04-01T05:55:05;626.17;;;570.85;;
47381;SDS011;33128;51.580;5.170;2023-04-01T05:57:31;590.15;;;535.60;;
47381;SDS011;33128;51.580;5.170;2023-04-01T05:59:57;690.47;;;632.17;;
47381;SDS011;33128;51.580;5.170;2023-04-01T06:02:22;4.45;;;4.13;;
47381;SDS011;33128;51.580;5.170;2023-04-01T06:04:48;4.50;;;3.72;;
47381;SDS011;33128;51.580;5.170;2023-04-01T06:07:19;4.50;;;4.30;;
47381;SDS011;33128;51.580;5.170;2023-04-01T06:09:45;4.68;;;4.28;;
47381;SDS011;33128;51.580;5.170;2023-04-01T06:20:45;8.35;;;6.10;;
47381;SDS011;33128;51.580;5.170;2023-04-01T06:23:38;9.02;;;8.23;;
47381;SDS011;33128;51.580;5.170;2023-04-01T06:26:18;8.23;;;7.53;;
47381;SDS011;33128;51.580;5.170;2023-04-01T06:32:10;13.77;;;11.55;;
47381;SDS011;33128;51.580;5.170;2023-04-01T06:35:01;9.65;;;8.63;;
47381;SDS011;33128;51.580;5.170;2023-04-01T06:40:40;51.90;;;48.00;;
47381;SDS011;33128;51.580;5.170;2023-04-01T06:46:48;14.43;;;13.17;;
47381;SDS011;33128;51.580;5.170;2023-04-01T06:54:31;8.10;;;7.40;;
47381;SDS011;33128;51.580;5.170;2023-04-01T06:59:46;9.35;;;7.25;;
47381;SDS011;33128;51.580;5.170;2023-04-01T07:02:19;13.35;;;8.45;;
47381;SDS011;33128;51.580;5.170;2023-04-01T07:04:51;73.47;;;68.40;;
47381;SDS011;33128;51.580;5.170;2023-04-01T07:07:42;137.35;;;128.25;;
47381;SDS011;33128;51.580;5.170;2023-04-01T07:10:13;8.82;;;8.07;;
47381;SDS011;33128;51.580;5.170;2023-04-01T07:12:48;10.32;;;8.10;;
47381;SDS011;33128;51.580;5.170;2023-04-01T07:15:28;8.63;;;7.82;;
47381;SDS011;33128;51.580;5.170;2023-04-01T07:18:03;12.98;;;8.05;;
47381;SDS011;33128;51.580;5.170;2023-04-01T07:20:36;8.02;;;7.28;;
47381;SDS011;33128;51.580;5.170;2023-04-01T07:23:04;9.65;;;8.23;;
47381;SDS011;33128;51.580;5.170;2023-04-01T07:25:41;7.47;;;6.80;;
47381;SDS011;33128;51.580;5.170;2023-04-01T07:28:14;9.55;;;8.65;;
47381;SDS011;33128;51.580;5.170;2023-04-01T07:33:39;11.30;;;7.53;;
47381;SDS011;33128;51.580;5.170;2023-04-01T07:43:45;43.30;;;40.55;;
47381;SDS011;33128;51.580;5.170;2023-04-01T07:46:32;13.00;;;11.75;;
47381;SDS011;33128;51.580;5.170;2023-04-01T07:49:16;49.83;;;46.47;;
47381;SDS011;33128;51.580;5.170;2023-04-01T07:57:27;23.77;;;21.65;;
47381;SDS011;33128;51.580;5.170;2023-04-01T08:00:03;21.45;;;19.75;;
47381;SDS011;33128;51.580;5.170;2023-04-01T08:05:39;8.23;;;7.43;;
47381;SDS011;33128;51.580;5.170;2023-04-01T08:11:01;22.65;;;8.68;;
47381;SDS011;33128;51.580;5.170;2023-04-01T08:13:54;10.20;;;8.18;;
47381;SDS011;33128;51.580;5.170;2023-04-01T08:22:08;226.07;;;211.88;;
47381;SDS011;33128;51.580;5.170;2023-04-01T08:24:43;9.25;;;8.55;;
47381;SDS011;33128;51.580;5.170;2023-04-01T08:27:34;7.53;;;6.90;;
47381;SDS011;33128;51.580;5.170;2023-04-01T08:32:49;9.05;;;8.15;;
47381;SDS011;33128;51.580;5.170;2023-04-01T08:35:26;7.70;;;7.10;;
47381;SDS011;33128;51.580;5.170;2023-04-01T08:55:02;7.93;;;7.22;;
47381;SDS011;33128;51.580;5.170;2023-04-01T09:04:04;6.65;;;6.25;;
47381;SDS011;33128;51.580;5.170;2023-04-01T09:12:30;8.98;;;8.18;;
47381;SDS011;33128;51.580;5.170;2023-04-01T09:23:10;6.57;;;6.18;;
47381;SDS011;33128;51.580;5.170;2023-04-01T09:31:43;9.20;;;4.53;;
47381;SDS011;33128;51.580;5.170;2023-04-01T09:37:41;6.85;;;5.70;;
47381;SDS011;33128;51.580;5.170;2023-04-01T09:40:42;5.75;;;5.28;;
47381;SDS011;33128;51.580;5.170;2023-04-01T09:43:28;6.70;;;6.10;;
47381;SDS011;33128;51.580;5.170;2023-04-01T10:19:11;7.55;;;6.88;;
47381;SDS011;33128;51.580;5.170;2023-04-01T10:35:49;8.70;;;7.95;;
47381;SDS011;33128;51.580;5.170;2023-04-01T10:44:52;7.35;;;6.85;;
47381;SDS011;33128;51.580;5.170;2023-04-01T10:53:54;8.13;;;7.43;;
47381;SDS011;33128;51.580;5.170;2023-04-01T10:59:20;8.90;;;8.13;;
47381;SDS011;33128;51.580;5.170;2023-04-01T11:19:43;8.77;;;7.97;;
47381;SDS011;33128;51.580;5.170;2023-04-01T11:22:41;9.10;;;7.70;;
47381;SDS011;33128;51.580;5.170;2023-04-01T11:28:23;10.02;;;7.50;;
47381;SDS011;33128;51.580;5.170;2023-04-01T11:31:11;7.78;;;7.25;;
47381;SDS011;33128;51.580;5.170;2023-04-01T11:33:45;9.25;;;7.63;;
47381;SDS011;33128;51.580;5.170;2023-04-01T12:10:18;8.32;;;7.55;;
47381;SDS011;33128;51.580;5.170;2023-04-01T12:16:03;7.78;;;7.10;;
47381;SDS011;33128;51.580;5.170;2023-04-01T12:18:49;8.82;;;8.02;;
47381;SDS011;33128;51.580;5.170;2023-04-01T12:21:27;7.97;;;7.38;;
47381;SDS011;33128;51.580;5.170;2023-04-01T12:32:25;7.95;;;7.35;;
47381;SDS011;33128;51.580;5.170;2023-04-01T12:35:44;8.70;;;8.02;;
47381;SDS011;33128;51.580;5.170;2023-04-01T12:38:05;8.70;;;8.13;;
47381;SDS011;33128;51.580;5.170;2023-04-01T12:40:49;6.75;;;6.25;;
47381;SDS011;33128;51.580;5.170;2023-04-01T12:43:35;6.28;;;5.65;;
47381;SDS011;33128;51.580;5.170;2023-04-01T12:52:34;7.93;;;7.33;;
47381;SDS011;33128;51.580;5.170;2023-04-01T13:03:43;7.18;;;6.75;;
47381;SDS011;33128;51.580;5.170;2023-04-01T13:09:07;8.23;;;7.43;;
47381;SDS011;33128;51.580;5.170;2023-04-01T13:12:29;8.40;;;7.47;;
47381;SDS011;33128;51.580;5.170;2023-04-01T13:15:10;7.82;;;7.10;;
47381;SDS011;33128;51.580;5.170;2023-04-01T13:21:21;8.27;;;7.50;;
47381;SDS011;33128;51.580;5.170;2023-04-01T13:24:24;7.47;;;7.07;;
47381;SDS011;33128;51.580;5.170;2023-04-01T13:27:02;7.93;;;7.40;;
47381;SDS011;33128;51.580;5.170;2023-04-01T13:40:42;7.22;;;6.72;;
47381;SDS011;33128;51.580;5.170;2023-04-01T14:02:33;12.25;;;9.52;;
47381;SDS011;33128;51.580;5.170;2023-04-01T14:13:41;9.00;;;8.10;;
47381;SDS011;33128;51.580;5.170;2023-04-01T14:16:31;8.75;;;7.95;;
47381;SDS011;33128;51.580;5.170;2023-04-01T14:27:40;7.82;;;7.07;;
47381;SDS011;33128;51.580;5.170;2023-04-01T14:30:31;8.25;;;7.65;;
47381;SDS011;33128;51.580;5.170;2023-04-01T14:36:01;12.65;;;10.38;;
47381;SDS011;33128;51.580;5.170;2023-04-01T14:41:38;12.07;;;8.23;;
47381;SDS011;33128;51.580;5.170;2023-04-01T14:50:28;7.57;;;6.97;;
47381;SDS011;33128;51.580;5.170;2023-04-01T14:53:12;9.05;;;8.10;;
47381;SDS011;33128;51.580;5.170;2023-04-01T14:55:58;20.33;;;14.65;;
47381;SDS011;33128;51.580;5.170;2023-04-01T14:58:46;9.18;;;8.32;;
47381;SDS011;33128;51.580;5.170;2023-04-01T15:01:34;10.90;;;8.60;;
47381;SDS011;33128;51.580;5.170;2023-04-01T15:04:25;219.68;;;204.90;;
47381;SDS011;33128;51.580;5.170;2023-04-01T15:07:35;8.50;;;7.60;;
47381;SDS011;33128;51.580;5.170;2023-04-01T15:10:47;8.48;;;7.80;;
47381;SDS011;33128;51.580;5.170;2023-04-01T15:24:24;8.57;;;7.78;;
47381;SDS011;33128;51.580;5.170;2023-04-01T15:27:11;8.45;;;7.85;;
47381;SDS011;33128;51.580;5.170;2023-04-01T15:30:18;9.40;;;7.75;;
47381;SDS011;33128;51.580;5.170;2023-04-01T15:35:36;8.13;;;7.43;;
47381;SDS011;33128;51.580;5.170;2023-04-01T15:40:40;6.88;;;6.25;;
47381;SDS011;33128;51.580;5.170;2023-04-01T15:46:30;9.15;;;7.45;;
47381;SDS011;33128;51.580;5.170;2023-04-01T15:49:20;7.78;;;7.15;;
47381;SDS011;33128;51.580;5.170;2023-04-01T15:57:17;7.47;;;6.93;;
47381;SDS011;33128;51.580;5.170;2023-04-01T16:13:42;26.58;;;24.67;;
47381;SDS011;33128;51.580;5.170;2023-04-01T16:16:46;8.20;;;7.57;;
47381;SDS011;33128;51.580;5.170;2023-04-01T16:19:37;25.63;;;23.75;;
47381;SDS011;33128;51.580;5.170;2023-04-01T16:24:59;10.18;;;8.50;;
47381;SDS011;33128;51.580;5.170;2023-04-01T16:27:47;8.55;;;7.70;;
47381;SDS011;33128;51.580;5.170;2023-04-01T16:54:30;223.75;;;208.52;;
47381;SDS011;33128;51.580;5.170;2023-04-01T17:02:04;14.65;;;8.52;;
47381;SDS011;33128;51.580;5.170;2023-04-01T17:13:12;7.20;;;6.55;;
47381;SDS011;33128;51.580;5.170;2023-04-01T17:16:10;12.48;;;9.60;;
47381;SDS011;33128;51.580;5.170;2023-04-01T17:21:43;6.20;;;5.80;;
47381;SDS011;33128;51.580;5.170;2023-04-01T17:24:31;6.85;;;6.35;;
47381;SDS011;33128;51.580;5.170;2023-04-01T17:27:31;11.55;;;10.02;;
47381;SDS011;33128;51.580;5.170;2023-04-01T17:38:38;5.22;;;5.03;;
47381;SDS011;33128;51.580;5.170;2023-04-01T17:44:12;5.00;;;4.70;;
47381;SDS011;33128;51.580;5.170;2023-04-01T17:49:49;5.50;;;5.20;;
47381;SDS011;33128;51.580;5.170;2023-04-01T17:54:54;5.85;;;5.55;;
47381;SDS011;33128;51.580;5.170;2023-04-01T17:57:46;5.80;;;5.60;;
47381;SDS011;33128;51.580;5.170;2023-04-01T18:09:21;5.85;;;5.53;;
47381;SDS011;33128;51.580;5.170;2023-04-01T18:20:42;6.05;;;5.65;;
47381;SDS011;33128;51.580;5.170;2023-04-01T18:26:35;6.38;;;5.97;;
47381;SDS011;33128;51.580;5.170;2023-04-01T18:31:36;6.03;;;5.80;;
47381;SDS011;33128;51.580;5.170;2023-04-01T18:34:15;5.90;;;5.70;;
47381;SDS011;33128;51.580;5.170;2023-04-01T18:36:51;6.03;;;5.72;;
47381;SDS011;33128;51.580;5.170;2023-04-01T18:42:00;6.30;;;6.10;;
47381;SDS011;33128;51.580;5.170;2023-04-01T18:50:18;7.00;;;6.60;;
47381;SDS011;33128;51.580;5.170;2023-04-01T18:56:28;6.53;;;6.13;;
47381;SDS011;33128;51.580;5.170;2023-04-01T18:59:09;6.97;;;6.53;;
47381;SDS011;33128;51.580;5.170;2023-04-01T19:02:00;5.90;;;5.60;;
47381;SDS011;33128;51.580;5.170;2023-04-01T19:04:36;5.57;;;5.28;;
47381;SDS011;33128;51.580;5.170;2023-04-01T19:10:16;7.13;;;6.72;;
47381;SDS011;33128;51.580;5.170;2023-04-01T19:35:17;7.75;;;7.25;;
47381;SDS011;33128;51.580;5.170;2023-04-01T19:57:28;7.38;;;6.97;;
47381;SDS011;33128;51.580;5.170;2023-04-01T20:00:19;5.60;;;5.32;;
47381;SDS011;33128;51.580;5.170;2023-04-01T20:05:49;6.47;;;6.03;;
47381;SDS011;33128;51.580;5.170;2023-04-01T20:11:04;6.55;;;6.15;;
47381;SDS011;33128;51.580;5.170;2023-04-01T20:17:01;6.38;;;5.97;;
47381;SDS011;33128;51.580;5.170;2023-04-01T20:25:48;6.32;;;6.05;;
47381;SDS011;33128;51.580;5.170;2023-04-01T20:50:45;6.10;;;5.90;;
47381;SDS011;33128;51.580;5.170;2023-04-01T20:58:52;6.10;;;5.68;;
47381;SDS011;33128;51.580;5.170;2023-04-01T21:07:10;6.65;;;6.45;;
47381;SDS011;33128;51.580;5.170;2023-04-01T21:09:55;6.38;;;6.07;;
47381;SDS011;33128;51.580;5.170;2023-04-01T21:12:39;6.95;;;6.50;;
47381;SDS011;33128;51.580;5.170;2023-04-01T21:18:39;5.90;;;5.60;;
47381;SDS011;33128;51.580;5.170;2023-04-01T21:21:39;713.83;;;653.67;;
47381;SDS011;33128;51.580;5.170;2023-04-01T21:29:45;503.67;;;470.75;;
47381;SDS011;33128;51.580;5.170;2023-04-01T21:32:31;717.03;;;654.25;;
47381;SDS011;33128;51.580;5.170;2023-04-01T22:02:33;614.55;;;556.63;;
47381;SDS011;33128;51.580;5.170;2023-04-01T22:08:08;707.05;;;643.50;;
47381;SDS011;33128;51.580;5.170;2023-04-01T22:13:07;724.22;;;659.67;;
47381;SDS011;33128;51.580;5.170;2023-04-01T22:16:16;711.95;;;647.47;;
47381;SDS011;33128;51.580;5.170;2023-04-01T22:22:01;675.58;;;613.53;;
47381;SDS011;33128;51.580;5.170;2023-04-01T22:24:49;693.15;;;632.28;;
47381;SDS011;33128;51.580;5.170;2023-04-01T22:35:43;690.88;;;636.10;;
47381;SDS011;33128;51.580;5.170;2023-04-01T22:41:32;618.47;;;571.65;;
47381;SDS011;33128;51.580;5.170;2023-04-01T22:47:16;674.58;;;622.15;;
47381;SDS011;33128;51.580;5.170;2023-04-01T22:52:40;653.75;;;604.10;;
47381;SDS011;33128;51.580;5.170;2023-04-01T22:57:55;679.65;;;621.78;;
47381;SDS011;33128;51.580;5.170;2023-04-01T23:00:35;685.15;;;629.33;;
47381;SDS011;33128;51.580;5.170;2023-04-01T23:10:58;673.90;;;619.53;;
47381;SDS011;33128;51.580;5.170;2023-04-01T23:13:29;693.05;;;637.15;;
47381;SDS011;33128;51.580;5.170;2023-04-01T23:16:03;692.67;;;630.47;;
47381;SDS011;33128;51.580;5.170;2023-04-01T23:27:12;646.42;;;587.70;;
47381;SDS011;33128;51.580;5.170;2023-04-01T23:29:46;686.80;;;625.95;;
47381;SDS011;33128;51.580;5.170;2023-04-01T23:32:24;694.30;;;630.05;;
47381;SDS011;33128;51.580;5.170;2023-04-01T23:34:52;673.45;;;611.17;;
47381;SDS011;33128;51.580;5.170;2023-04-01T23:37:20;681.60;;;621.00;;
47381;SDS011;33128;51.580;5.170;2023-04-01T23:39:48;697.15;;;636.22;;
47381;SDS011;33128;51.580;5.170;2023-04-01T23:42:23;647.45;;;591.65;;
47381;SDS011;33128;51.580;5.170;2023-04-01T23:44:55;689.33;;;629.28;;
47381;SDS011;33128;51.580;5.170;2023-04-01T23:47:30;685.45;;;625.30;;
47381;SDS011;33128;51.580;5.170;2023-04-01T23:50:03;646.90;;;588.60;;
47381;SDS011;33128;51.580;5.170;2023-04-01T23:52:35;656.95;;;601.58;;
47381;SDS011;33128;51.580;5.170;2023-04-01T23:57:36;678.67;;;621.88;;
